createdAt,value
2023-02-16T00:01:42.771Z,3.40
2023-02-16T00:06:47.513Z,3.40
2023-02-16T00:12:09.562Z,3.13
2023-02-16T00:17:13.577Z,3.10
2023-02-16T00:22:18.237Z,3.13
2023-02-16T00:27:21.555Z,3.17
2023-02-16T00:32:24.826Z,3.47
2023-02-16T00:37:29.576Z,3.17
2023-02-16T00:42:35.284Z,3.40
2023-02-16T00:47:41.800Z,3.47
2023-02-16T00:52:47.119Z,3.23
2023-02-16T00:57:53.377Z,3.30
2023-02-16T01:02:58.608Z,3.40
2023-02-16T01:08:21.260Z,3.07
2023-02-16T01:13:25.124Z,3.53
2023-02-16T01:18:28.379Z,3.20
2023-02-16T01:23:33.098Z,3.30
2023-02-16T01:28:37.495Z,2.93
2023-02-16T01:33:40.851Z,3.27
2023-02-16T01:38:45.896Z,3.47
2023-02-16T01:43:53.851Z,3.17
2023-02-16T01:48:57.113Z,3.57
2023-02-16T01:54:07.894Z,2.77
2023-02-16T01:59:20.897Z,2.70
2023-02-16T02:04:46.273Z,2.90
2023-02-16T02:09:59.049Z,2.40
2023-02-16T02:15:02.327Z,2.90
2023-02-16T02:20:14.411Z,3.13
2023-02-16T02:25:45.981Z,3.10
2023-02-16T02:31:02.099Z,3.17
2023-02-16T02:36:17.711Z,3.00
2023-02-16T02:41:50.031Z,3.33
2023-02-16T02:46:55.139Z,3.60
2023-02-16T02:51:59.130Z,3.37
2023-02-16T02:57:23.591Z,3.40
2023-02-16T03:02:29.907Z,3.53
2023-02-16T03:07:47.716Z,3.20
2023-02-16T03:12:51.102Z,3.17
2023-02-16T03:18:16.192Z,2.90
2023-02-16T03:23:37.248Z,3.10
2023-02-16T03:29:01.597Z,3.43
2023-02-16T03:34:06.894Z,2.90
2023-02-16T03:39:11.548Z,2.70
2023-02-16T03:44:14.832Z,2.93
2023-02-16T03:49:20.231Z,2.63
2023-02-16T03:54:23.553Z,2.60
2023-02-16T03:59:26.992Z,3.10
2023-02-16T04:04:31.678Z,3.77
2023-02-16T04:09:34.989Z,3.17
2023-02-16T04:14:38.284Z,3.33
2023-02-16T04:19:42.993Z,3.07
2023-02-16T04:24:46.309Z,2.90
2023-02-16T04:29:49.593Z,3.13
2023-02-16T04:34:54.402Z,3.23
2023-02-16T04:39:57.928Z,3.10
2023-02-16T04:45:01.267Z,3.47
2023-02-16T04:50:07.014Z,2.83
2023-02-16T04:55:11.130Z,3.07
2023-02-16T05:00:15.339Z,2.90
2023-02-16T05:05:20.160Z,3.23
2023-02-16T05:10:23.438Z,3.20
2023-02-16T05:15:26.782Z,3.10
2023-02-16T05:20:45.419Z,2.90
2023-02-16T05:25:48.752Z,3.40
2023-02-16T05:30:52.064Z,2.87
2023-02-16T05:35:56.780Z,2.80
2023-02-16T05:41:00.891Z,3.10
2023-02-16T05:46:08.773Z,2.93
2023-02-16T05:51:13.696Z,3.40
2023-02-16T05:56:18.177Z,2.93
2023-02-16T06:01:22.121Z,7.57
2023-02-16T06:06:26.779Z,4.40
2023-02-16T06:11:38.797Z,4.70
2023-02-16T06:16:44.437Z,3.23
2023-02-16T06:21:49.569Z,3.40
2023-02-16T06:26:52.824Z,3.60
2023-02-16T06:31:56.383Z,3.07
2023-02-16T06:37:01.112Z,3.33
2023-02-16T06:42:04.488Z,3.30
2023-02-16T06:47:07.718Z,3.30
2023-02-16T06:52:12.370Z,5.30
2023-02-16T06:57:15.639Z,4.83
2023-02-16T07:02:18.882Z,4.80
2023-02-16T07:07:24.031Z,3.80
2023-02-16T07:12:27.330Z,3.30
2023-02-16T07:17:30.569Z,3.77
2023-02-16T07:22:35.276Z,3.43
2023-02-16T07:27:38.524Z,3.57
2023-02-16T07:32:41.821Z,3.77
2023-02-16T07:37:46.501Z,3.40
2023-02-16T07:42:49.788Z,3.50
2023-02-16T07:47:53.087Z,3.20
2023-02-16T07:52:57.745Z,3.63
2023-02-16T07:58:01.769Z,3.33
2023-02-16T08:03:06.171Z,3.23
2023-02-16T08:08:17.204Z,3.37
2023-02-16T08:13:20.855Z,6.40
2023-02-16T08:18:24.164Z,4.70
2023-02-16T08:23:29.660Z,5.20
2023-02-16T08:28:32.901Z,4.37
2023-02-16T08:33:36.476Z,3.70
2023-02-16T08:38:43.433Z,4.77
2023-02-16T08:43:46.949Z,4.20
2023-02-16T08:48:50.401Z,3.53
2023-02-16T08:53:56.051Z,3.80
2023-02-16T08:58:59.684Z,2.77
2023-02-16T09:04:02.980Z,3.67
2023-02-16T09:09:08.806Z,4.80
2023-02-16T09:14:12.170Z,4.83
2023-02-16T09:19:16.140Z,4.03
2023-02-16T09:24:22.080Z,3.90
2023-02-16T09:29:25.348Z,5.13
2023-02-16T09:34:29.980Z,4.83
2023-02-16T09:39:34.771Z,3.70
2023-02-16T09:44:49.444Z,4.17
2023-02-16T09:49:56.511Z,5.27
2023-02-16T09:55:04.073Z,5.13
2023-02-16T10:00:18.500Z,4.87
2023-02-16T10:05:28.128Z,4.47
2023-02-16T10:10:47.833Z,3.60
2023-02-16T10:15:54.000Z,3.20
2023-02-16T10:21:01.022Z,3.00
2023-02-16T10:26:16.898Z,3.30
2023-02-16T10:31:31.383Z,3.10
2023-02-16T10:36:50.700Z,2.80
2023-02-16T10:42:03.660Z,2.63
2023-02-16T10:47:10.399Z,2.70
2023-02-16T10:52:13.688Z,2.90
2023-02-16T10:57:26.951Z,2.10
2023-02-16T11:02:37.117Z,2.17
2023-02-16T11:07:54.184Z,1.97
2023-02-16T11:12:59.038Z,2.53
2023-02-16T11:18:08.301Z,2.30
2023-02-16T11:23:21.613Z,2.20
2023-02-16T11:28:33.049Z,1.70
2023-02-16T11:33:37.884Z,1.70
2023-02-16T11:38:41.376Z,2.13
2023-02-16T11:43:46.118Z,2.57
2023-02-16T11:48:49.780Z,2.20
2023-02-16T11:54:02.548Z,2.60
2023-02-16T11:59:13.994Z,2.30
2023-02-16T12:04:30.381Z,2.27
2023-02-16T12:09:43.871Z,2.00
2023-02-16T12:15:00.148Z,2.17
2023-02-16T12:20:15.073Z,2.30
2023-02-16T12:25:28.368Z,2.00
2023-02-16T12:30:46.560Z,1.77
2023-02-16T12:36:04.033Z,1.70
2023-02-16T12:41:16.950Z,1.30
2023-02-16T12:46:27.127Z,1.20
2023-02-16T12:51:35.569Z,1.43
2023-02-16T12:56:43.452Z,1.30
2023-02-16T13:01:52.103Z,1.33
2023-02-16T13:07:09.564Z,1.00
2023-02-16T13:12:21.192Z,1.10
2023-02-16T13:17:33.240Z,1.20
2023-02-16T13:22:52.915Z,1.13
2023-02-16T13:28:04.284Z,0.90
2023-02-16T13:33:28.104Z,1.40
2023-02-16T13:38:50.322Z,0.90
2023-02-16T13:43:56.565Z,1.10
2023-02-16T13:49:03.337Z,0.80
2023-02-16T13:54:08.874Z,0.90
2023-02-16T13:59:55.522Z,0.90
2023-02-16T14:05:10.769Z,1.03
2023-02-16T14:10:15.491Z,1.13
2023-02-16T14:15:21.029Z,1.20
2023-02-16T14:20:31.432Z,1.33
2023-02-16T14:25:38.878Z,1.63
2023-02-16T14:30:56.197Z,1.50
2023-02-16T14:36:16.852Z,1.50
2023-02-16T14:41:29.182Z,1.30
2023-02-16T14:46:49.368Z,1.90
2023-02-16T14:52:36.069Z,1.90
2023-02-16T14:57:44.430Z,2.13
2023-02-16T15:02:57.381Z,2.17
2023-02-16T15:08:12.534Z,1.70
2023-02-16T15:13:21.017Z,2.03
2023-02-16T15:18:28.808Z,2.10
2023-02-16T15:23:35.721Z,2.33
2023-02-16T15:28:40.966Z,1.70
2023-02-16T15:33:46.327Z,2.43
2023-02-16T15:39:00.045Z,3.10
2023-02-16T15:44:05.904Z,2.73
2023-02-16T15:49:13.876Z,2.93
2023-02-16T15:54:27.286Z,3.20
2023-02-16T15:59:35.780Z,3.00
2023-02-16T16:04:42.083Z,2.70
2023-02-16T16:09:47.720Z,2.80
2023-02-16T16:14:55.553Z,2.67
2023-02-16T16:20:00.726Z,2.07
2023-02-16T16:25:30.857Z,2.50
2023-02-16T16:30:37.385Z,2.60
2023-02-16T16:35:43.508Z,2.47
2023-02-16T16:40:53.464Z,2.23
2023-02-16T16:46:12.588Z,2.27
2023-02-16T16:51:18.673Z,2.20
2023-02-16T16:56:37.420Z,3.20
2023-02-16T17:01:42.070Z,3.23
2023-02-16T17:06:46.344Z,4.53
2023-02-16T17:11:52.194Z,4.57
2023-02-16T17:16:58.237Z,4.70
2023-02-16T17:22:03.056Z,4.20
2023-02-16T17:27:16.755Z,4.30
2023-02-16T17:32:23.735Z,4.50
2023-02-16T17:37:28.243Z,4.10
2023-02-16T17:42:34.952Z,4.50
2023-02-16T17:47:39.707Z,5.13
2023-02-16T17:52:45.232Z,4.40
2023-02-16T17:57:50.850Z,5.03
2023-02-16T18:02:55.717Z,4.00
2023-02-16T18:08:00.188Z,3.67
2023-02-16T18:13:06.271Z,3.00
2023-02-16T18:18:11.991Z,3.67
2023-02-16T18:23:16.326Z,2.90
2023-02-16T18:28:29.848Z,2.50
2023-02-16T18:33:37.256Z,2.50
2023-02-16T18:38:42.387Z,3.03
2023-02-16T18:43:49.437Z,2.60
2023-02-16T18:48:55.841Z,2.53
2023-02-16T18:54:15.223Z,1.93
2023-02-16T18:59:22.484Z,1.90
2023-02-16T19:04:33.307Z,1.97
2023-02-16T19:09:38.914Z,2.47
2023-02-16T19:14:47.106Z,2.00
2023-02-16T19:19:52.757Z,2.80
2023-02-16T19:24:58.189Z,2.27
2023-02-16T19:30:05.014Z,2.37
2023-02-16T19:35:10.897Z,2.70
2023-02-16T19:40:21.273Z,2.63
2023-02-16T19:45:27.627Z,2.80
2023-02-16T19:50:33.289Z,2.20
2023-02-16T19:55:43.344Z,1.60
2023-02-16T20:00:49.892Z,1.90
2023-02-16T20:05:55.516Z,2.00
2023-02-16T20:11:03.755Z,2.07
2023-02-16T20:16:12.098Z,2.07
2023-02-16T20:21:18.790Z,2.93
2023-02-16T20:26:29.536Z,2.60
2023-02-16T20:31:39.982Z,2.43
2023-02-16T20:36:45.750Z,2.20
2023-02-16T20:41:50.994Z,4.13
2023-02-16T20:46:56.171Z,5.60
2023-02-16T20:52:02.444Z,5.90
2023-02-16T20:57:09.515Z,2.73
2023-02-16T21:02:20.621Z,4.47
2023-02-16T21:07:25.074Z,4.57
2023-02-16T21:12:29.563Z,3.83
2023-02-16T21:17:36.678Z,4.20
2023-02-16T21:22:42.267Z,3.73
2023-02-16T21:27:45.654Z,3.00
2023-02-16T21:32:52.365Z,2.97
2023-02-16T21:37:57.218Z,2.57
2023-02-16T21:43:00.944Z,2.27
2023-02-16T21:48:23.310Z,3.07
2023-02-16T21:53:27.176Z,3.13
2023-02-16T21:58:34.472Z,5.30
2023-02-16T22:03:39.421Z,6.60
2023-02-16T22:08:42.755Z,7.20
2023-02-16T22:13:46.066Z,6.47
2023-02-16T22:18:51.211Z,6.23
2023-02-16T22:23:55.100Z,5.90
2023-02-16T22:28:59.019Z,3.87
2023-02-16T22:34:06.263Z,3.80
2023-02-16T22:39:09.593Z,4.20
2023-02-16T22:44:15.130Z,4.40
2023-02-16T22:49:19.800Z,4.63
2023-02-16T22:54:23.475Z,4.67
2023-02-16T22:59:26.807Z,4.80
2023-02-16T23:04:31.607Z,4.50
2023-02-16T23:09:34.938Z,4.90
2023-02-16T23:14:38.734Z,5.20
2023-02-16T23:19:43.472Z,5.83
2023-02-16T23:25:06.758Z,5.50
2023-02-16T23:30:10.967Z,5.20
2023-02-16T23:35:15.812Z,5.20
2023-02-16T23:40:19.192Z,4.97
2023-02-16T23:45:22.518Z,4.90
2023-02-16T23:50:27.398Z,5.07
2023-02-16T23:55:30.730Z,5.27
